Time;durP1;ratioP1;P1;durP2;ratioP2;P2;SDS_P1;SDS_P2;PMS_P1;PMS_P2;Temp;Humidity;BMP_temperature;BMP_pressure;BME280_temperature;BME280_humidity;BME280_pressure;Samples;Min_cycle;Max_cycle;Signal;HPM_P1;HPM_P2
2023/05/31 00:01:12;;;;;;;;;;;19.30;73.90;;;;;;4973327;28;19961;-76
2023/05/31 00:03:41;;;;;;;;;;;19.30;73.90;;;;;;4973511;28;19961;-75
2023/05/31 00:06:07;;;;;;;;;;;19.40;74.00;;;;;;4973368;28;19922;-75
2023/05/31 00:08:32;;;;;;;;;;;19.30;74.20;;;;;;4973503;28;19906;-76
2023/05/31 00:10:58;;;;;;;;;;;19.30;74.60;;;;;;4972304;28;19906;-75
2023/05/31 00:13:23;;;;;;;;;;;19.30;74.30;;;;;;4973378;28;20295;-76
2023/05/31 00:15:49;;;;;;;;;;;19.20;74.80;;;;;;4973673;28;19913;-76
2023/05/31 00:18:15;;;;;;;;;;;19.20;74.90;;;;;;4973329;28;19914;-76
2023/05/31 00:20:40;;;;;;;;;;;19.20;74.90;;;;;;4973292;28;19913;-76
2023/05/31 00:23:06;;;;;;;;;;;19.20;75.00;;;;;;4973199;28;19917;-75
2023/05/31 00:25:31;;;;;;;;;;;19.20;74.30;;;;;;4973560;28;19924;-76
2023/05/31 00:27:57;;;;;;;;;;;19.10;75.60;;;;;;4973041;28;19917;-76
2023/05/31 00:30:22;;;;;;;;;;;19.10;75.80;;;;;;4973188;28;19906;-76
2023/05/31 00:32:48;;;;;;;;;;;19.10;75.40;;;;;;4973201;28;19910;-77
2023/05/31 00:35:13;;;;;;;;;;;19.10;76.10;;;;;;4973008;28;20490;-75
2023/05/31 00:37:39;;;;;;;;;;;19.10;74.90;;;;;;4973098;28;19933;-76
2023/05/31 00:40:05;;;;;;;;;;;19.10;75.00;;;;;;4972976;28;20678;-76
2023/05/31 00:42:31;;;;;;;;;;;19.00;75.30;;;;;;4972839;28;19910;-76
2023/05/31 00:44:57;;;;;;;;;;;19.10;75.10;;;;;;4972698;28;19918;-76
2023/05/31 00:47:23;;;;;;;;;;;19.10;74.50;;;;;;4972741;28;20387;-76
2023/05/31 00:49:48;;;;;;;;;;;19.10;75.40;;;;;;4972740;28;19964;-76
2023/05/31 00:52:14;;;;;;;;;;;19.10;74.10;;;;;;4972786;28;19956;-76
2023/05/31 00:54:40;;;;;;;;;;;19.10;74.70;;;;;;4972662;28;20382;-76
2023/05/31 00:57:05;;;;;;;;;;;19.00;74.80;;;;;;4972519;28;19906;-75
2023/05/31 00:59:31;;;;;;;;;;;19.00;75.10;;;;;;4972708;28;20005;-75
2023/05/31 01:01:57;;;;;;;;;;;18.90;75.70;;;;;;4972540;28;19946;-75
2023/05/31 01:04:23;;;;;;;;;;;18.90;75.00;;;;;;4972701;28;19918;-76
2023/05/31 01:06:49;;;;;;;;;;;18.90;75.40;;;;;;4972523;28;19914;-76
2023/05/31 01:09:15;;;;;;;;;;;18.80;75.50;;;;;;4972234;28;19910;-76
2023/05/31 01:11:42;;;;;;;;;;;18.80;75.90;;;;;;4972613;28;19906;-77
2023/05/31 01:14:20;;;;;;;;;;;18.90;75.30;;;;;;4972114;28;19910;-76
2023/05/31 01:16:52;;;;;;;;;;;18.80;75.70;;;;;;4972707;28;19910;-76
2023/05/31 01:19:36;;;;;;;;;;;18.80;75.60;;;;;;4972189;28;19909;-76
2023/05/31 01:22:14;;;;;;;;;;;18.80;75.70;;;;;;4972260;28;20001;-75
2023/05/31 01:24:52;;;;;;;;;;;18.70;76.20;;;;;;4970918;28;19917;-76
2023/05/31 01:27:19;;;;;;;;;;;18.70;76.20;;;;;;4971881;28;19914;-75
2023/05/31 01:29:44;;;;;;;;;;;18.70;75.90;;;;;;4972071;28;19977;-75
2023/05/31 01:32:13;;;;;;;;;;;18.60;76.40;;;;;;4971808;28;19914;-75
2023/05/31 01:34:38;;;;;;;;;;;18.70;75.90;;;;;;4971783;28;19910;-76
2023/05/31 01:37:04;;;;;;;;;;;18.70;76.00;;;;;;4971865;28;19969;-76
2023/05/31 01:39:30;;;;;;;;;;;18.60;76.10;;;;;;4971849;28;19906;-75
2023/05/31 01:41:56;;;;;;;;;;;18.50;76.20;;;;;;4971725;28;19914;-76
2023/05/31 01:44:22;;;;;;;;;;;18.50;77.30;;;;;;4971775;28;20322;-75
2023/05/31 01:46:48;;;;;;;;;;;18.50;76.50;;;;;;4971653;28;20024;-77
2023/05/31 01:49:14;;;;;;;;;;;18.50;76.50;;;;;;4971615;28;20415;-76
2023/05/31 01:51:40;;;;;;;;;;;18.50;76.20;;;;;;4971675;28;19906;-75
2023/05/31 01:54:05;;;;;;;;;;;18.40;76.70;;;;;;4971670;28;20374;-76
2023/05/31 01:56:31;;;;;;;;;;;18.40;77.10;;;;;;4970244;28;19909;-76
2023/05/31 01:58:57;;;;;;;;;;;18.40;77.10;;;;;;4971436;28;19929;-75
2023/05/31 02:01:23;;;;;;;;;;;18.30;76.80;;;;;;4971380;28;19917;-76
2023/05/31 02:03:50;;;;;;;;;;;18.40;76.20;;;;;;4971428;28;19922;-75
2023/05/31 02:06:16;;;;;;;;;;;18.40;76.20;;;;;;4970124;28;20013;-76
2023/05/31 02:08:42;;;;;;;;;;;18.40;77.00;;;;;;4971477;28;20383;-75
2023/05/31 02:11:07;;;;;;;;;;;18.40;77.40;;;;;;4970152;28;20656;-76
2023/05/31 02:13:33;;;;;;;;;;;18.30;76.60;;;;;;4971454;28;20286;-77
2023/05/31 02:15:59;;;;;;;;;;;18.30;76.50;;;;;;4970116;28;19906;-76
2023/05/31 02:18:29;;;;;;;;;;;18.40;76.40;;;;;;4971183;28;19910;-76
2023/05/31 02:20:54;;;;;;;;;;;18.40;76.50;;;;;;4971233;28;19977;-75
2023/05/31 02:23:20;;;;;;;;;;;18.50;75.60;;;;;;4969995;28;19957;-76
2023/05/31 02:25:46;;;;;;;;;;;18.40;76.00;;;;;;4970264;28;19918;-74
2023/05/31 02:28:12;;;;;;;;;;;18.40;76.30;;;;;;4971189;28;20114;-76
2023/05/31 02:30:38;;;;;;;;;;;18.30;76.60;;;;;;4971097;28;19913;-76
2023/05/31 02:33:04;;;;;;;;;;;18.40;76.30;;;;;;4969889;28;19906;-76
2023/05/31 02:35:30;;;;;;;;;;;18.40;76.00;;;;;;4970984;28;20573;-75
2023/05/31 02:37:56;;;;;;;;;;;18.30;75.90;;;;;;4970988;28;20021;-75
2023/05/31 02:40:21;;;;;;;;;;;18.40;75.90;;;;;;4971190;28;19929;-76
2023/05/31 02:42:47;;;;;;;;;;;18.40;75.60;;;;;;4970918;28;19910;-75
2023/05/31 02:45:13;;;;;;;;;;;18.30;76.10;;;;;;4970720;28;19914;-75
2023/05/31 02:47:39;;;;;;;;;;;18.30;76.20;;;;;;4971046;28;19965;-75
2023/05/31 02:50:06;;;;;;;;;;;18.20;76.30;;;;;;4970944;28;19969;-76
2023/05/31 02:52:31;;;;;;;;;;;18.20;78.00;;;;;;4969730;28;19910;-76
2023/05/31 02:54:57;;;;;;;;;;;18.20;76.60;;;;;;4970825;28;20298;-75
2023/05/31 02:57:22;;;;;;;;;;;18.30;76.10;;;;;;4970783;28;19906;-75
2023/05/31 02:59:48;;;;;;;;;;;18.30;75.70;;;;;;4970559;28;19910;-77
2023/05/31 03:02:14;;;;;;;;;;;18.30;75.90;;;;;;4970733;28;19906;-75
2023/05/31 03:04:41;;;;;;;;;;;18.30;76.00;;;;;;4970554;28;19918;-76
2023/05/31 03:07:07;;;;;;;;;;;18.20;75.90;;;;;;4970799;28;19921;-76
2023/05/31 03:09:32;;;;;;;;;;;18.20;76.30;;;;;;4969394;28;19910;-74
2023/05/31 03:11:58;;;;;;;;;;;18.30;75.90;;;;;;4970680;28;19910;-75
2023/05/31 03:14:23;;;;;;;;;;;18.30;76.20;;;;;;4970719;28;20384;-76
2023/05/31 03:16:50;;;;;;;;;;;18.20;76.30;;;;;;4970618;28;20298;-75
2023/05/31 03:19:15;;;;;;;;;;;18.40;76.20;;;;;;4969047;28;19913;-75
2023/05/31 03:21:41;;;;;;;;;;;18.50;74.70;;;;;;4970706;28;19932;-75
2023/05/31 03:24:06;;;;;;;;;;;18.50;74.80;;;;;;4970509;28;19918;-75
2023/05/31 03:26:32;;;;;;;;;;;18.50;74.30;;;;;;4970621;28;19918;-75
2023/05/31 03:28:57;;;;;;;;;;;18.60;74.30;;;;;;4971556;28;19910;-76
2023/05/31 03:31:23;;;;;;;;;;;18.60;74.60;;;;;;4970442;28;19906;-75
2023/05/31 03:33:50;;;;;;;;;;;18.60;74.00;;;;;;4969038;28;19964;-76
2023/05/31 03:36:16;;;;;;;;;;;18.60;74.10;;;;;;4969449;28;20333;-75
2023/05/31 03:38:41;;;;;;;;;;;18.70;73.70;;;;;;4972615;28;19906;-75
2023/05/31 03:41:07;;;;;;;;;;;18.70;74.00;;;;;;4972473;28;20000;-75
2023/05/31 03:43:32;;;;;;;;;;;18.70;73.70;;;;;;4974052;28;20050;-77
2023/05/31 03:46:01;;;;;;;;;;;18.70;74.10;;;;;;4973739;28;20406;-77
2023/05/31 03:48:29;;;;;;;;;;;18.70;73.70;;;;;;4973761;28;19917;-75
2023/05/31 03:50:55;;;;;;;;;;;18.70;73.90;;;;;;4973834;28;19914;-77
2023/05/31 03:53:21;;;;;;;;;;;18.70;74.10;;;;;;4973907;28;20055;-76
2023/05/31 03:55:47;;;;;;;;;;;18.80;73.90;;;;;;4973609;28;20406;-75
2023/05/31 03:58:12;;;;;;;;;;;18.90;72.60;;;;;;4973485;28;19929;-75
2023/05/31 04:00:38;;;;;;;;;;;18.90;73.40;;;;;;4973425;28;19953;-76
2023/05/31 04:03:04;;;;;;;;;;;19.10;72.50;;;;;;4973428;28;19922;-75
2023/05/31 04:05:29;;;;;;;;;;;19.20;71.70;;;;;;4988148;28;20398;-74
2023/05/31 04:07:55;;;;;;;;;;;19.40;71.30;;;;;;4973467;28;20370;-74
2023/05/31 04:10:20;;;;;;;;;;;19.50;71.00;;;;;;4973452;28;19906;-75
2023/05/31 04:12:46;;;;;;;;;;;19.50;70.20;;;;;;4972024;28;20377;-75
2023/05/31 04:15:11;;;;;;;;;;;19.60;70.40;;;;;;4973151;28;19974;-76
2023/05/31 04:17:37;;;;;;;;;;;19.70;70.10;;;;;;4973261;28;20045;-76
2023/05/31 04:20:07;;;;;;;;;;;19.70;70.10;;;;;;4973316;28;19910;-75
2023/05/31 04:22:33;;;;;;;;;;;19.70;70.00;;;;;;4973322;28;19957;-75
2023/05/31 04:24:58;;;;;;;;;;;19.70;69.80;;;;;;4972975;28;19913;-75
2023/05/31 04:27:25;;;;;;;;;;;19.80;69.50;;;;;;4973342;28;20387;-75
2023/05/31 04:29:51;;;;;;;;;;;19.80;68.90;;;;;;4973161;28;19917;-76
2023/05/31 04:32:17;;;;;;;;;;;19.80;70.30;;;;;;4972906;28;19908;-74
2023/05/31 04:34:42;;;;;;;;;;;19.80;69.80;;;;;;4972801;28;20291;-74
2023/05/31 04:37:08;;;;;;;;;;;19.70;69.20;;;;;;4972761;28;19916;-76
2023/05/31 04:39:34;;;;;;;;;;;19.60;70.60;;;;;;4972922;28;19906;-75
2023/05/31 04:42:00;;;;;;;;;;;19.60;69.60;;;;;;4972627;28;19917;-76
2023/05/31 04:44:26;;;;;;;;;;;19.50;70.50;;;;;;4972301;28;19912;-76
2023/05/31 04:46:51;;;;;;;;;;;19.50;70.50;;;;;;4972012;28;19914;-75
2023/05/31 04:49:18;;;;;;;;;;;19.50;69.80;;;;;;4968275;28;20287;-77
2023/05/31 04:51:44;;;;;;;;;;;19.50;69.50;;;;;;4971035;28;19917;-75
2023/05/31 04:54:09;;;;;;;;;;;19.40;70.40;;;;;;4970550;28;19909;-75
2023/05/31 04:56:35;;;;;;;;;;;19.40;70.70;;;;;;4985386;28;20346;-75
2023/05/31 04:59:00;;;;;;;;;;;19.40;69.30;;;;;;4970363;28;20390;-75
2023/05/31 05:01:26;;;;;;;;;;;19.40;70.00;;;;;;4970431;28;20525;-76
2023/05/31 05:03:52;;;;;;;;;;;19.40;70.40;;;;;;4969844;28;20318;-74
2023/05/31 05:06:18;;;;;;;;;;;19.50;70.10;;;;;;4970083;28;19918;-75
2023/05/31 05:08:44;;;;;;;;;;;19.50;68.80;;;;;;4971328;28;20318;-75
2023/05/31 05:11:10;;;;;;;;;;;19.50;70.50;;;;;;4971882;28;20267;-74
2023/05/31 05:13:36;;;;;;;;;;;19.60;68.60;;;;;;4972023;28;19941;-74
2023/05/31 05:16:02;;;;;;;;;;;19.60;69.00;;;;;;4969654;28;19917;-75
2023/05/31 05:18:28;;;;;;;;;;;19.60;68.10;;;;;;4970387;28;19910;-74
2023/05/31 05:20:54;;;;;;;;;;;19.70;68.50;;;;;;4970597;28;19906;-75
2023/05/31 05:23:19;;;;;;;;;;;19.60;68.80;;;;;;4970567;28;19906;-75
2023/05/31 05:25:45;;;;;;;;;;;19.60;68.80;;;;;;4971593;28;19922;-75
2023/05/31 05:28:10;;;;;;;;;;;19.70;69.30;;;;;;4972023;28;19910;-75
2023/05/31 05:30:36;;;;;;;;;;;19.80;67.50;;;;;;4971534;28;20279;-75
2023/05/31 05:33:01;;;;;;;;;;;19.80;68.70;;;;;;4971504;28;19910;-75
2023/05/31 05:35:27;;;;;;;;;;;19.70;68.90;;;;;;4971535;28;19909;-74
2023/05/31 05:37:53;;;;;;;;;;;19.80;68.40;;;;;;4971517;28;19906;-75
2023/05/31 05:40:19;;;;;;;;;;;19.80;67.40;;;;;;4971612;28;19916;-76
2023/05/31 05:42:45;;;;;;;;;;;19.80;68.10;;;;;;4971487;28;19997;-75
2023/05/31 05:45:11;;;;;;;;;;;19.90;67.90;;;;;;4971062;28;20272;-76
2023/05/31 05:47:36;;;;;;;;;;;20.00;69.10;;;;;;4986390;28;19930;-75
2023/05/31 05:50:02;;;;;;;;;;;20.10;68.10;;;;;;4971309;28;19969;-75
2023/05/31 05:52:28;;;;;;;;;;;20.10;66.90;;;;;;4971280;28;19949;-75
2023/05/31 05:54:53;;;;;;;;;;;20.30;66.60;;;;;;4970018;28;19906;-75
2023/05/31 05:57:19;;;;;;;;;;;20.60;65.40;;;;;;4971131;28;19933;-75
2023/05/31 05:59:45;;;;;;;;;;;20.80;66.30;;;;;;4971643;28;19997;-75
2023/05/31 06:02:11;;;;;;;;;;;21.30;63.90;;;;;;4971130;28;19910;-76
2023/05/31 06:04:36;;;;;;;;;;;22.00;62.00;;;;;;4971455;28;19906;-75
2023/05/31 06:07:02;;;;;;;;;;;22.80;59.20;;;;;;4971059;28;19910;-75
2023/05/31 06:09:28;;;;;;;;;;;23.70;57.00;;;;;;4985902;28;19906;-76
2023/05/31 06:11:53;;;;;;;;;;;24.40;56.80;;;;;;4971015;28;19906;-76
2023/05/31 06:14:19;;;;;;;;;;;25.10;54.20;;;;;;4970990;28;19906;-75
2023/05/31 06:16:45;;;;;;;;;;;25.70;51.80;;;;;;4969530;28;19916;-75
2023/05/31 06:19:10;;;;;;;;;;;26.00;50.60;;;;;;4970584;28;19910;-76
2023/05/31 06:21:36;;;;;;;;;;;26.30;50.10;;;;;;4971043;28;19910;-75
2023/05/31 06:24:02;;;;;;;;;;;26.70;50.20;;;;;;4970748;28;20029;-75
2023/05/31 06:26:28;;;;;;;;;;;27.20;48.10;;;;;;4970908;28;19918;-76
2023/05/31 06:28:53;;;;;;;;;;;27.60;47.40;;;;;;4970513;28;19910;-75
2023/05/31 06:31:19;;;;;;;;;;;27.80;46.50;;;;;;4970749;28;20310;-77
2023/05/31 06:33:44;;;;;;;;;;;28.10;47.00;;;;;;4970881;28;19953;-77
2023/05/31 06:36:10;;;;;;;;;;;28.60;46.90;;;;;;4969765;28;19906;-77
2023/05/31 06:38:35;;;;;;;;;;;29.00;43.80;;;;;;4969308;28;19949;-76
2023/05/31 06:41:01;;;;;;;;;;;29.00;44.00;;;;;;4970719;28;19910;-74
2023/05/31 06:43:27;;;;;;;;;;;29.10;44.20;;;;;;4970728;28;19906;-74
2023/05/31 06:45:52;;;;;;;;;;;29.00;44.60;;;;;;4985322;28;19914;-73
2023/05/31 06:48:18;;;;;;;;;;;29.10;42.40;;;;;;4969388;28;19913;-72
2023/05/31 06:50:44;;;;;;;;;;;29.10;41.70;;;;;;4985547;28;19910;-73
2023/05/31 06:53:12;;;;;;;;;;;29.00;41.80;;;;;;4970347;28;19910;-74
2023/05/31 06:55:38;;;;;;;;;;;28.80;43.20;;;;;;4985564;28;20282;-74
2023/05/31 06:58:04;;;;;;;;;;;28.60;42.60;;;;;;4970726;28;19906;-74
2023/05/31 07:00:29;;;;;;;;;;;28.70;43.70;;;;;;4970561;28;19950;-74
2023/05/31 07:02:55;;;;;;;;;;;29.00;42.90;;;;;;4970037;28;19922;-75
2023/05/31 07:05:21;;;;;;;;;;;29.20;42.00;;;;;;4970431;28;19914;-75
2023/05/31 07:07:47;;;;;;;;;;;29.40;42.60;;;;;;4970599;28;19906;-74
2023/05/31 07:10:12;;;;;;;;;;;29.40;41.90;;;;;;4969153;28;19910;-74
2023/05/31 07:12:38;;;;;;;;;;;29.70;41.20;;;;;;4972866;28;20310;-74
2023/05/31 07:15:04;;;;;;;;;;;29.70;42.40;;;;;;4974420;28;19913;-75
2023/05/31 07:17:30;;;;;;;;;;;29.50;42.40;;;;;;4974391;28;19973;-75
2023/05/31 07:19:59;;;;;;;;;;;29.40;40.90;;;;;;4972917;28;20286;-74
2023/05/31 07:22:24;;;;;;;;;;;29.00;40.70;;;;;;4974202;28;19910;-75
2023/05/31 07:24:50;;;;;;;;;;;28.80;42.30;;;;;;4974113;28;19977;-75
2023/05/31 07:27:15;;;;;;;;;;;28.60;42.40;;;;;;4988901;28;19910;-75
2023/05/31 07:29:41;;;;;;;;;;;28.70;43.10;;;;;;4974359;28;20347;-76
2023/05/31 07:32:06;;;;;;;;;;;28.90;42.30;;;;;;4972765;28;20367;-74
2023/05/31 07:34:32;;;;;;;;;;;28.60;42.30;;;;;;4974151;28;19952;-76
2023/05/31 07:36:58;;;;;;;;;;;28.40;43.20;;;;;;4973699;28;20006;-75
2023/05/31 07:39:24;;;;;;;;;;;28.40;43.40;;;;;;4974043;28;19906;-75
2023/05/31 07:41:49;;;;;;;;;;;28.50;43.20;;;;;;4974048;28;20378;-75
2023/05/31 07:44:19;;;;;;;;;;;28.50;43.70;;;;;;4972592;28;19961;-76
2023/05/31 07:46:45;;;;;;;;;;;28.60;43.90;;;;;;4972383;28;19988;-75
2023/05/31 07:49:10;;;;;;;;;;;28.70;42.80;;;;;;4972200;28;19993;-75
2023/05/31 07:51:36;;;;;;;;;;;28.80;44.20;;;;;;4972496;28;19910;-76
2023/05/31 07:54:02;;;;;;;;;;;28.70;44.00;;;;;;4973775;28;20069;-76
2023/05/31 07:56:28;;;;;;;;;;;28.90;42.80;;;;;;4973404;28;19933;-75
2023/05/31 07:58:54;;;;;;;;;;;29.00;44.50;;;;;;4972214;28;20367;-75
2023/05/31 08:01:19;;;;;;;;;;;29.00;43.20;;;;;;4973355;28;19906;-75
2023/05/31 08:03:45;;;;;;;;;;;28.80;43.60;;;;;;4973117;28;19923;-75
2023/05/31 08:06:10;;;;;;;;;;;29.10;43.30;;;;;;4971639;28;19921;-75
2023/05/31 08:08:36;;;;;;;;;;;29.40;42.80;;;;;;4973360;28;19913;-75
2023/05/31 08:11:02;;;;;;;;;;;29.30;41.50;;;;;;4973349;28;19917;-76
2023/05/31 08:13:28;;;;;;;;;;;29.30;44.40;;;;;;4973307;28;19906;-75
2023/05/31 08:15:54;;;;;;;;;;;29.80;43.70;;;;;;4973261;28;19963;-76
2023/05/31 08:18:20;;;;;;;;;;;30.20;42.70;;;;;;4973466;28;19932;-75
2023/05/31 08:20:45;;;;;;;;;;;30.50;41.20;;;;;;4973224;28;19906;-75
2023/05/31 08:23:20;;;;;;;;;;;30.50;41.70;;;;;;4971484;28;19907;-75
2023/05/31 08:25:47;;;;;;;;;;;30.30;40.50;;;;;;4971776;28;20434;-75
2023/05/31 08:28:13;;;;;;;;;;;30.10;41.30;;;;;;4972934;28;20394;-74
2023/05/31 08:30:38;;;;;;;;;;;30.10;40.90;;;;;;4973085;28;19906;-74
2023/05/31 08:33:04;;;;;;;;;;;30.30;40.90;;;;;;4972966;28;19906;-72
2023/05/31 08:35:30;;;;;;;;;;;30.40;39.20;;;;;;4971560;28;19913;-72
2023/05/31 08:37:55;;;;;;;;;;;30.50;39.00;;;;;;4972918;28;19993;-74
2023/05/31 08:40:22;;;;;;;;;;;30.50;39.30;;;;;;4973035;28;20389;-76
2023/05/31 08:42:47;;;;;;;;;;;30.40;39.80;;;;;;4972920;28;19913;-76
2023/05/31 08:45:13;;;;;;;;;;;30.10;39.50;;;;;;4972633;28;19921;-75
2023/05/31 08:47:59;;;;;;;;;;;30.20;42.70;;;;;;4972793;28;19913;-76
2023/05/31 08:50:26;;;;;;;;;;;30.50;39.50;;;;;;4972126;28;19906;-76
2023/05/31 08:52:52;;;;;;;;;;;30.60;38.90;;;;;;4972919;28;19906;-75
2023/05/31 08:55:18;;;;;;;;;;;30.60;38.40;;;;;;4972435;28;19917;-75
2023/05/31 08:57:44;;;;;;;;;;;30.80;38.10;;;;;;4972632;28;20295;-75
2023/05/31 09:00:11;;;;;;;;;;;30.60;38.70;;;;;;4972680;28;19910;-76
2023/05/31 09:02:37;;;;;;;;;;;30.60;38.60;;;;;;4972376;28;19917;-75
2023/05/31 09:05:03;;;;;;;;;;;30.60;39.50;;;;;;4972165;28;20374;-75
2023/05/31 09:07:29;;;;;;;;;;;30.60;38.50;;;;;;4972592;28;19906;-76
2023/05/31 09:09:55;;;;;;;;;;;30.40;39.80;;;;;;4970920;28;19932;-75
2023/05/31 09:12:21;;;;;;;;;;;30.40;40.10;;;;;;4972308;28;20302;-75
2023/05/31 09:14:46;;;;;;;;;;;30.80;38.10;;;;;;4987093;28;20345;-74
2023/05/31 09:17:12;;;;;;;;;;;30.90;38.00;;;;;;4972163;28;19921;-75
2023/05/31 09:19:48;;;;;;;;;;;31.00;40.10;;;;;;4972265;28;19956;-75
2023/05/31 09:22:14;;;;;;;;;;;31.30;37.90;;;;;;4972234;28;19960;-75
2023/05/31 09:24:48;;;;;;;;;;;31.40;38.00;;;;;;4970749;28;19944;-75
2023/05/31 09:27:13;;;;;;;;;;;31.50;39.10;;;;;;4971702;28;20012;-75
2023/05/31 09:29:41;;;;;;;;;;;31.50;39.50;;;;;;4970701;28;19910;-75
2023/05/31 09:32:08;;;;;;;;;;;31.40;37.80;;;;;;4972297;28;20004;-75
2023/05/31 09:34:34;;;;;;;;;;;31.20;37.30;;;;;;4971534;28;19906;-76
2023/05/31 09:36:59;;;;;;;;;;;31.00;38.90;;;;;;4986656;28;19917;-75
2023/05/31 09:39:25;;;;;;;;;;;31.10;36.30;;;;;;4971844;28;19914;-75
2023/05/31 09:41:51;;;;;;;;;;;30.70;38.00;;;;;;4971754;28;19914;-75
2023/05/31 09:44:17;;;;;;;;;;;30.70;40.30;;;;;;4971497;28;19981;-75
2023/05/31 09:46:45;;;;;;;;;;;30.70;38.50;;;;;;4971855;28;19918;-75
2023/05/31 09:49:10;;;;;;;;;;;30.60;39.40;;;;;;4970437;28;20294;-74
2023/05/31 09:51:36;;;;;;;;;;;30.30;38.20;;;;;;4970298;28;19910;-74
2023/05/31 09:54:13;;;;;;;;;;;30.30;40.20;;;;;;4971394;28;20002;-74
2023/05/31 09:56:40;;;;;;;;;;;30.40;40.60;;;;;;4970264;28;20370;-74
2023/05/31 09:59:06;;;;;;;;;;;30.50;39.40;;;;;;4971064;28;19906;-74
2023/05/31 10:01:32;;;;;;;;;;;30.10;38.50;;;;;;4971380;28;19917;-74
2023/05/31 10:03:59;;;;;;;;;;;29.50;41.30;;;;;;4971082;28;19921;-74
2023/05/31 10:06:25;;;;;;;;;;;29.20;44.20;;;;;;4971287;28;19918;-74
2023/05/31 10:08:50;;;;;;;;;;;29.10;41.20;;;;;;4969750;28;20441;-75
2023/05/31 10:11:17;;;;;;;;;;;28.70;44.60;;;;;;4969370;28;19918;-74
2023/05/31 10:13:44;;;;;;;;;;;28.40;42.60;;;;;;4970766;28;20375;-74
2023/05/31 10:16:10;;;;;;;;;;;28.10;42.60;;;;;;4971030;28;20347;-74
2023/05/31 10:18:37;;;;;;;;;;;28.00;43.90;;;;;;4971011;28;20445;-73
2023/05/31 10:21:05;;;;;;;;;;;27.90;43.90;;;;;;4970567;28;19906;-73
2023/05/31 10:23:34;;;;;;;;;;;28.00;43.00;;;;;;4970996;28;19906;-73
2023/05/31 10:26:17;;;;;;;;;;;27.70;41.30;;;;;;4985535;28;19925;-73
2023/05/31 10:28:58;;;;;;;;;;;27.60;43.30;;;;;;4969767;28;20267;-73
2023/05/31 10:31:28;;;;;;;;;;;27.60;40.50;;;;;;4971082;28;19910;-74
2023/05/31 10:33:58;;;;;;;;;;;27.30;42.50;;;;;;4970712;28;19906;-73
2023/05/31 10:36:23;;;;;;;;;;;27.30;42.00;;;;;;4970962;28;19918;-74
2023/05/31 10:39:02;;;;;;;;;;;27.00;41.60;;;;;;4970335;28;19910;-74
2023/05/31 10:41:33;;;;;;;;;;;26.90;44.70;;;;;;4970227;28;19992;-74
2023/05/31 10:44:02;;;;;;;;;;;26.70;42.20;;;;;;4970218;28;19910;-73
2023/05/31 10:46:30;;;;;;;;;;;26.60;43.80;;;;;;4970959;28;19924;-73
2023/05/31 10:48:57;;;;;;;;;;;26.50;43.10;;;;;;4974876;28;19921;-74
2023/05/31 10:51:41;;;;;;;;;;;26.60;43.90;;;;;;4974758;28;19910;-74
2023/05/31 10:54:07;;;;;;;;;;;26.60;43.00;;;;;;4974569;28;19906;-73
2023/05/31 10:56:32;;;;;;;;;;;26.40;42.70;;;;;;4974478;28;19929;-73
2023/05/31 10:58:58;;;;;;;;;;;26.40;40.60;;;;;;4975039;28;20444;-73
2023/05/31 11:01:27;;;;;;;;;;;26.40;43.70;;;;;;4974278;28;19999;-72
2023/05/31 11:03:53;;;;;;;;;;;26.40;44.10;;;;;;4974259;28;20052;-75
2023/05/31 11:06:23;;;;;;;;;;;26.40;44.50;;;;;;4974355;28;20012;-73
2023/05/31 11:09:05;;;;;;;;;;;26.50;44.10;;;;;;4974573;28;19906;-74
2023/05/31 11:11:31;;;;;;;;;;;26.30;42.50;;;;;;4974555;28;19997;-73
2023/05/31 11:13:59;;;;;;;;;;;26.40;42.50;;;;;;4974262;28;20387;-80
2023/05/31 11:16:26;;;;;;;;;;;26.40;44.20;;;;;;4988953;28;19984;-74
2023/05/31 11:19:12;;;;;;;;;;;26.50;44.00;;;;;;4974023;28;19906;-74
2023/05/31 11:21:49;;;;;;;;;;;26.50;45.60;;;;;;4967099;28;19906;-74
2023/05/31 11:24:24;;;;;;;;;;;26.60;41.90;;;;;;4974166;28;19917;-74
2023/05/31 11:26:54;;;;;;;;;;;26.70;40.80;;;;;;4974287;28;19918;-74
2023/05/31 11:29:19;;;;;;;;;;;26.50;43.10;;;;;;4974164;28;20041;-75
2023/05/31 11:31:48;;;;;;;;;;;26.50;41.00;;;;;;4974306;28;19945;-74
2023/05/31 11:34:28;;;;;;;;;;;26.60;43.00;;;;;;4974471;28;20355;-74
2023/05/31 11:36:55;;;;;;;;;;;26.60;40.90;;;;;;4974066;28;19910;-75
2023/05/31 11:39:21;;;;;;;;;;;26.50;43.00;;;;;;4974011;28;19910;-75
2023/05/31 11:41:46;;;;;;;;;;;26.60;41.60;;;;;;4973757;28;19906;-75
2023/05/31 11:44:13;;;;;;;;;;;26.70;43.20;;;;;;4972452;28;19914;-75
2023/05/31 11:46:40;;;;;;;;;;;26.80;43.60;;;;;;4973653;28;19925;-74
2023/05/31 11:49:08;;;;;;;;;;;26.90;43.10;;;;;;4973388;28;20009;-75
2023/05/31 11:51:33;;;;;;;;;;;27.00;40.20;;;;;;4973792;28;19910;-74
2023/05/31 11:53:59;;;;;;;;;;;27.00;40.80;;;;;;4974183;28;19948;-73
2023/05/31 11:56:28;;;;;;;;;;;27.00;41.60;;;;;;4972328;28;19906;-75
2023/05/31 11:58:56;;;;;;;;;;;27.10;40.50;;;;;;4973194;28;20555;-74
2023/05/31 12:01:22;;;;;;;;;;;27.20;40.50;;;;;;4973410;28;19957;-75
2023/05/31 12:03:47;;;;;;;;;;;27.20;40.90;;;;;;4973424;28;19922;-75
2023/05/31 12:06:13;;;;;;;;;;;27.30;39.50;;;;;;4973518;28;19918;-75
2023/05/31 12:08:39;;;;;;;;;;;27.30;38.00;;;;;;4972273;28;19953;-75
2023/05/31 12:11:05;;;;;;;;;;;27.20;40.30;;;;;;4973264;28;19952;-75
2023/05/31 12:13:31;;;;;;;;;;;27.10;43.50;;;;;;4971944;28;19910;-74
2023/05/31 12:15:57;;;;;;;;;;;27.00;41.00;;;;;;4973325;28;20347;-75
2023/05/31 12:18:22;;;;;;;;;;;26.50;40.10;;;;;;4973383;28;19961;-74
2023/05/31 12:20:48;;;;;;;;;;;26.40;43.80;;;;;;4971859;28;20353;-74
2023/05/31 12:23:18;;;;;;;;;;;26.40;43.80;;;;;;4971961;28;19913;-76
2023/05/31 12:25:48;;;;;;;;;;;26.40;43.90;;;;;;4973054;28;19918;-74
2023/05/31 12:28:15;;;;;;;;;;;26.50;45.50;;;;;;4972914;28;19909;-75
2023/05/31 12:30:45;;;;;;;;;;;26.60;45.20;;;;;;4973000;28;19959;-74
2023/05/31 12:33:11;;;;;;;;;;;26.80;47.20;;;;;;4973008;28;19965;-75
2023/05/31 12:35:40;;;;;;;;;;;27.00;45.40;;;;;;4971452;28;19909;-76
2023/05/31 12:38:05;;;;;;;;;;;27.10;44.90;;;;;;4972563;28;19953;-73
2023/05/31 12:40:36;;;;;;;;;;;27.10;44.10;;;;;;4973126;28;19941;-73
2023/05/31 12:43:01;;;;;;;;;;;27.00;44.30;;;;;;4972648;28;19965;-72
2023/05/31 12:45:27;;;;;;;;;;;26.60;45.10;;;;;;4972503;28;19918;-73
2023/05/31 12:47:57;;;;;;;;;;;26.30;44.60;;;;;;4972694;28;19997;-74
2023/05/31 12:50:22;;;;;;;;;;;26.00;46.60;;;;;;4971532;28;19909;-74
2023/05/31 12:52:54;;;;;;;;;;;25.80;45.10;;;;;;4972846;28;19960;-72
2023/05/31 12:55:20;;;;;;;;;;;25.80;47.10;;;;;;4972443;28;19910;-73
2023/05/31 12:57:45;;;;;;;;;;;26.10;47.50;;;;;;4972462;28;19914;-74
2023/05/31 13:00:12;;;;;;;;;;;26.30;46.10;;;;;;4972702;28;19932;-74
2023/05/31 13:02:38;;;;;;;;;;;26.40;46.40;;;;;;4972134;28;20004;-73
2023/05/31 13:05:04;;;;;;;;;;;26.70;47.10;;;;;;4972317;28;19965;-74
2023/05/31 13:07:29;;;;;;;;;;;26.90;46.90;;;;;;4970753;28;19989;-74
2023/05/31 13:09:55;;;;;;;;;;;27.10;46.70;;;;;;4971542;28;20498;-74
2023/05/31 13:12:21;;;;;;;;;;;27.10;46.50;;;;;;4971986;28;19906;-75
2023/05/31 13:14:47;;;;;;;;;;;27.00;45.10;;;;;;4986995;28;20379;-75
2023/05/31 13:17:12;;;;;;;;;;;26.80;46.40;;;;;;4971881;28;19913;-73
2023/05/31 13:19:38;;;;;;;;;;;26.70;45.50;;;;;;4972224;28;19917;-74
2023/05/31 13:22:04;;;;;;;;;;;26.70;45.40;;;;;;4972472;28;20367;-74
2023/05/31 13:24:29;;;;;;;;;;;26.70;46.50;;;;;;4970803;28;20342;-74
2023/05/31 13:26:55;;;;;;;;;;;26.70;47.20;;;;;;4972015;28;20048;-75
2023/05/31 13:29:23;;;;;;;;;;;26.80;45.60;;;;;;4970530;28;19913;-73
2023/05/31 13:31:49;;;;;;;;;;;26.70;44.60;;;;;;4970594;28;20345;-74
2023/05/31 13:34:15;;;;;;;;;;;26.50;45.30;;;;;;4971532;28;20061;-74
2023/05/31 13:36:41;;;;;;;;;;;26.40;47.70;;;;;;4971960;28;19906;-74
2023/05/31 13:39:06;;;;;;;;;;;26.40;47.20;;;;;;4971295;28;19906;-74
2023/05/31 13:41:33;;;;;;;;;;;26.50;48.00;;;;;;4970175;28;19936;-73
2023/05/31 13:43:59;;;;;;;;;;;26.50;46.00;;;;;;4971515;28;19910;-74
2023/05/31 13:46:26;;;;;;;;;;;26.50;45.90;;;;;;4971576;28;19991;-73
2023/05/31 13:48:52;;;;;;;;;;;26.50;45.90;;;;;;4971535;28;19910;-74
2023/05/31 13:51:17;;;;;;;;;;;26.60;46.60;;;;;;4971231;28;19917;-74
2023/05/31 13:53:43;;;;;;;;;;;26.60;47.20;;;;;;4971650;28;19910;-74
2023/05/31 13:56:09;;;;;;;;;;;26.60;45.30;;;;;;4971603;28;19916;-74
2023/05/31 13:58:36;;;;;;;;;;;26.60;46.90;;;;;;4970169;28;19909;-73
2023/05/31 14:01:03;;;;;;;;;;;26.50;44.10;;;;;;4971124;28;19910;-75
2023/05/31 14:03:28;;;;;;;;;;;26.40;44.00;;;;;;4971404;28;19917;-74
2023/05/31 14:05:54;;;;;;;;;;;26.20;43.80;;;;;;4971354;28;20094;-74
2023/05/31 14:08:22;;;;;;;;;;;26.20;45.60;;;;;;4971709;28;19913;-74
2023/05/31 14:10:48;;;;;;;;;;;26.40;45.40;;;;;;4986089;28;19910;-75
2023/05/31 14:13:13;;;;;;;;;;;26.40;45.30;;;;;;4971073;28;20350;-74